sensor_id;sensor_type;location;lat;lon;timestamp;pressure;altitude;pressure_sealevel;temperature;humidity
46534;BME280;32260;52.008;4.752;2023-07-31T00:01:50;101012.41;;;19.12;79.53
46534;BME280;32260;52.008;4.752;2023-07-31T00:04:16;101025.88;;;19.10;79.58
46534;BME280;32260;52.008;4.752;2023-07-31T00:06:42;101016.19;;;19.07;79.34
46534;BME280;32260;52.008;4.752;2023-07-31T00:09:08;101031.53;;;19.05;79.53
46534;BME280;32260;52.008;4.752;2023-07-31T00:11:34;101021.09;;;18.99;79.29
46534;BME280;32260;52.008;4.752;2023-07-31T00:14:00;101013.44;;;19.09;79.23
46534;BME280;32260;52.008;4.752;2023-07-31T00:16:27;101019.19;;;19.01;79.17
46534;BME280;32260;52.008;4.752;2023-07-31T00:18:53;101023.94;;;18.96;79.28
46534;BME280;32260;52.008;4.752;2023-07-31T00:21:19;101014.72;;;19.02;79.22
46534;BME280;32260;52.008;4.752;2023-07-31T00:23:45;101016.06;;;18.93;79.23
46534;BME280;32260;52.008;4.752;2023-07-31T00:26:11;101012.72;;;18.88;78.88
46534;BME280;32260;52.008;4.752;2023-07-31T00:28:37;101028.84;;;18.88;79.20
46534;BME280;32260;52.008;4.752;2023-07-31T00:31:03;101008.22;;;18.88;79.17
46534;BME280;32260;52.008;4.752;2023-07-31T00:33:34;101010.50;;;18.79;79.61
46534;BME280;32260;52.008;4.752;2023-07-31T00:36:00;101020.53;;;18.75;79.51
46534;BME280;32260;52.008;4.752;2023-07-31T00:38:26;101013.03;;;18.82;79.06
46534;BME280;32260;52.008;4.752;2023-07-31T00:40:52;101010.59;;;18.77;79.58
46534;BME280;32260;52.008;4.752;2023-07-31T00:43:18;101008.44;;;18.84;79.46
46534;BME280;32260;52.008;4.752;2023-07-31T00:45:45;101013.81;;;18.84;79.55
46534;BME280;32260;52.008;4.752;2023-07-31T00:48:11;101018.88;;;18.72;79.98
46534;BME280;32260;52.008;4.752;2023-07-31T00:50:38;101016.81;;;18.78;79.84
46534;BME280;32260;52.008;4.752;2023-07-31T00:53:04;101018.00;;;18.72;80.22
46534;BME280;32260;52.008;4.752;2023-07-31T00:55:31;101008.44;;;18.66;80.31
46534;BME280;32260;52.008;4.752;2023-07-31T00:57:57;101000.72;;;18.78;79.90
46534;BME280;32260;52.008;4.752;2023-07-31T01:00:23;100997.25;;;18.75;80.06
46534;BME280;32260;52.008;4.752;2023-07-31T01:02:50;101005.94;;;18.81;79.76
46534;BME280;32260;52.008;4.752;2023-07-31T01:05:19;100998.97;;;18.76;80.23
46534;BME280;32260;52.008;4.752;2023-07-31T01:08:04;101002.97;;;18.85;79.61
46534;BME280;32260;52.008;4.752;2023-07-31T01:10:36;100996.22;;;18.78;79.85
46534;BME280;32260;52.008;4.752;2023-07-31T01:13:08;101007.50;;;18.67;80.60
46534;BME280;32260;52.008;4.752;2023-07-31T01:15:36;101010.91;;;18.71;80.45
46534;BME280;32260;52.008;4.752;2023-07-31T01:18:02;101000.47;;;18.65;80.16
46534;BME280;32260;52.008;4.752;2023-07-31T01:20:29;101015.25;;;18.73;79.60
46534;BME280;32260;52.008;4.752;2023-07-31T01:26:17;101008.13;;;18.72;78.99
46534;BME280;32260;52.008;4.752;2023-07-31T01:29:29;101026.78;;;18.58;79.29
46534;BME280;32260;52.008;4.752;2023-07-31T01:31:41;100994.41;;;18.43;79.45
46534;BME280;32260;52.008;4.752;2023-07-31T01:34:09;101004.00;;;18.48;79.80
46534;BME280;32260;52.008;4.752;2023-07-31T01:36:36;100993.28;;;18.48;79.63
46534;BME280;32260;52.008;4.752;2023-07-31T01:39:02;101007.81;;;18.43;79.66
46534;BME280;32260;52.008;4.752;2023-07-31T01:41:29;100987.91;;;18.48;79.91
46534;BME280;32260;52.008;4.752;2023-07-31T01:43:55;100983.44;;;18.48;79.88
46534;BME280;32260;52.008;4.752;2023-07-31T01:46:21;100986.84;;;18.52;79.81
46534;BME280;32260;52.008;4.752;2023-07-31T01:48:48;100985.81;;;18.54;80.13
46534;BME280;32260;52.008;4.752;2023-07-31T01:51:14;100984.94;;;18.54;80.38
46534;BME280;32260;52.008;4.752;2023-07-31T01:53:40;100976.66;;;18.58;80.04
46534;BME280;32260;52.008;4.752;2023-07-31T01:56:06;100971.06;;;18.63;79.72
46534;BME280;32260;52.008;4.752;2023-07-31T01:58:32;100968.50;;;18.60;79.95
46534;BME280;32260;52.008;4.752;2023-07-31T02:00:58;100960.31;;;18.63;79.49
46534;BME280;32260;52.008;4.752;2023-07-31T02:03:24;100961.34;;;18.61;78.99
46534;BME280;32260;52.008;4.752;2023-07-31T02:05:50;100948.63;;;18.64;79.04
46534;BME280;32260;52.008;4.752;2023-07-31T02:08:17;100958.25;;;18.68;78.78
46534;BME280;32260;52.008;4.752;2023-07-31T02:10:43;100944.53;;;18.57;79.00
46534;BME280;32260;52.008;4.752;2023-07-31T02:13:11;100927.22;;;18.63;78.16
46534;BME280;32260;52.008;4.752;2023-07-31T02:15:37;100934.63;;;18.75;77.98
46534;BME280;32260;52.008;4.752;2023-07-31T02:18:03;100927.78;;;18.69;77.70
46534;BME280;32260;52.008;4.752;2023-07-31T02:20:29;100933.53;;;18.79;77.63
46534;BME280;32260;52.008;4.752;2023-07-31T02:22:55;100921.91;;;18.79;77.73
46534;BME280;32260;52.008;4.752;2023-07-31T02:25:21;100933.94;;;18.71;77.65
46534;BME280;32260;52.008;4.752;2023-07-31T02:27:47;100935.75;;;18.71;77.87
46534;BME280;32260;52.008;4.752;2023-07-31T02:30:13;100933.69;;;18.76;77.71
46534;BME280;32260;52.008;4.752;2023-07-31T02:32:40;100934.41;;;18.80;77.57
46534;BME280;32260;52.008;4.752;2023-07-31T02:35:06;100938.22;;;18.75;77.49
46534;BME280;32260;52.008;4.752;2023-07-31T02:37:33;100932.66;;;18.79;77.17
46534;BME280;32260;52.008;4.752;2023-07-31T02:39:59;100944.84;;;18.68;77.15
46534;BME280;32260;52.008;4.752;2023-07-31T02:42:25;100925.88;;;18.71;76.82
46534;BME280;32260;52.008;4.752;2023-07-31T02:44:51;100921.78;;;18.82;76.66
46534;BME280;32260;52.008;4.752;2023-07-31T02:47:22;100921.06;;;18.78;76.35
46534;BME280;32260;52.008;4.752;2023-07-31T02:49:48;100920.03;;;18.81;76.32
46534;BME280;32260;52.008;4.752;2023-07-31T02:52:14;100922.88;;;18.60;75.59
46534;BME280;32260;52.008;4.752;2023-07-31T02:54:40;100913.75;;;18.64;75.17
46534;BME280;32260;52.008;4.752;2023-07-31T02:57:06;100915.31;;;18.68;74.78
46534;BME280;32260;52.008;4.752;2023-07-31T02:59:32;100911.69;;;18.69;74.81
46534;BME280;32260;52.008;4.752;2023-07-31T03:01:59;100904.59;;;18.68;74.40
46534;BME280;32260;52.008;4.752;2023-07-31T03:04:25;100895.72;;;18.66;74.53
46534;BME280;32260;52.008;4.752;2023-07-31T03:06:51;100891.69;;;18.75;74.57
46534;BME280;32260;52.008;4.752;2023-07-31T03:09:17;100889.25;;;18.70;74.39
46534;BME280;32260;52.008;4.752;2023-07-31T03:11:43;100899.03;;;18.71;74.26
46534;BME280;32260;52.008;4.752;2023-07-31T03:14:09;100891.56;;;18.61;74.12
46534;BME280;32260;52.008;4.752;2023-07-31T03:16:35;100889.66;;;18.63;74.10
46534;BME280;32260;52.008;4.752;2023-07-31T03:19:04;100889.25;;;18.70;74.16
46534;BME280;32260;52.008;4.752;2023-07-31T03:21:30;100896.34;;;18.71;73.61
46534;BME280;32260;52.008;4.752;2023-07-31T03:23:56;100905.56;;;18.83;73.96
46534;BME280;32260;52.008;4.752;2023-07-31T03:26:23;100899.31;;;18.83;73.76
46534;BME280;32260;52.008;4.752;2023-07-31T03:28:49;100891.28;;;18.83;73.88
46534;BME280;32260;52.008;4.752;2023-07-31T03:31:15;100896.50;;;18.86;73.56
46534;BME280;32260;52.008;4.752;2023-07-31T03:33:41;100886.41;;;18.91;73.68
46534;BME280;32260;52.008;4.752;2023-07-31T03:36:08;100883.88;;;18.88;73.48
46534;BME280;32260;52.008;4.752;2023-07-31T03:38:34;100893.72;;;18.87;73.50
46534;BME280;32260;52.008;4.752;2023-07-31T03:41:00;100892.25;;;18.82;73.89
46534;BME280;32260;52.008;4.752;2023-07-31T03:43:28;100883.88;;;18.88;73.86
46534;BME280;32260;52.008;4.752;2023-07-31T03:45:54;100879.91;;;18.95;73.65
46534;BME280;32260;52.008;4.752;2023-07-31T03:48:20;100887.94;;;18.95;73.52
46534;BME280;32260;52.008;4.752;2023-07-31T03:50:46;100884.97;;;18.84;73.93
46534;BME280;32260;52.008;4.752;2023-07-31T03:53:12;100878.44;;;18.72;74.47
46534;BME280;32260;52.008;4.752;2023-07-31T03:55:38;100867.75;;;18.54;75.27
46534;BME280;32260;52.008;4.752;2023-07-31T03:58:04;100875.25;;;18.48;75.80
46534;BME280;32260;52.008;4.752;2023-07-31T04:00:30;100868.00;;;18.50;75.67
46534;BME280;32260;52.008;4.752;2023-07-31T04:02:56;100866.16;;;18.50;75.90
46534;BME280;32260;52.008;4.752;2023-07-31T04:05:22;100862.25;;;18.40;76.52
46534;BME280;32260;52.008;4.752;2023-07-31T04:07:49;100857.19;;;18.34;76.74
46534;BME280;32260;52.008;4.752;2023-07-31T04:10:15;100849.38;;;18.29;76.67
46534;BME280;32260;52.008;4.752;2023-07-31T04:12:41;100853.97;;;18.27;76.88
46534;BME280;32260;52.008;4.752;2023-07-31T04:15:07;100848.66;;;18.25;76.93
46534;BME280;32260;52.008;4.752;2023-07-31T04:17:34;100849.06;;;18.35;76.86
46534;BME280;32260;52.008;4.752;2023-07-31T04:20:00;100846.56;;;18.32;77.10
46534;BME280;32260;52.008;4.752;2023-07-31T04:22:26;100847.41;;;18.33;77.34
46534;BME280;32260;52.008;4.752;2023-07-31T04:24:52;100835.91;;;18.31;77.57
46534;BME280;32260;52.008;4.752;2023-07-31T04:27:18;100836.94;;;18.28;77.66
46534;BME280;32260;52.008;4.752;2023-07-31T04:29:44;100839.69;;;18.26;77.88
46534;BME280;32260;52.008;4.752;2023-07-31T04:32:11;100835.13;;;18.29;77.97
46534;BME280;32260;52.008;4.752;2023-07-31T04:34:38;100832.91;;;18.19;78.42
46534;BME280;32260;52.008;4.752;2023-07-31T04:37:04;100833.59;;;18.23;78.59
46534;BME280;32260;52.008;4.752;2023-07-31T04:39:30;100825.66;;;18.21;78.83
46534;BME280;32260;52.008;4.752;2023-07-31T04:41:56;100822.88;;;18.23;78.70
46534;BME280;32260;52.008;4.752;2023-07-31T04:44:22;100813.19;;;18.20;78.61
46534;BME280;32260;52.008;4.752;2023-07-31T04:46:48;100817.38;;;18.26;78.62
46534;BME280;32260;52.008;4.752;2023-07-31T04:49:14;100822.16;;;18.19;79.01
46534;BME280;32260;52.008;4.752;2023-07-31T04:51:40;100814.53;;;18.11;79.30
46534;BME280;32260;52.008;4.752;2023-07-31T04:54:06;100819.50;;;18.19;79.03
46534;BME280;32260;52.008;4.752;2023-07-31T04:56:32;100821.81;;;18.09;79.06
46534;BME280;32260;52.008;4.752;2023-07-31T04:58:58;100812.97;;;18.07;79.34
46534;BME280;32260;52.008;4.752;2023-07-31T05:01:25;100820.16;;;18.07;78.82
46534;BME280;32260;52.008;4.752;2023-07-31T05:03:51;100810.19;;;18.09;79.19
46534;BME280;32260;52.008;4.752;2023-07-31T05:06:17;100815.03;;;18.02;79.44
46534;BME280;32260;52.008;4.752;2023-07-31T05:08:43;100801.34;;;17.89;80.63
46534;BME280;32260;52.008;4.752;2023-07-31T05:11:09;100801.75;;;17.99;79.91
46534;BME280;32260;52.008;4.752;2023-07-31T05:13:35;100803.69;;;17.97;79.92
46534;BME280;32260;52.008;4.752;2023-07-31T05:16:01;100806.03;;;18.03;79.67
46534;BME280;32260;52.008;4.752;2023-07-31T05:18:27;100809.34;;;18.08;79.49
46534;BME280;32260;52.008;4.752;2023-07-31T05:20:53;100798.63;;;18.08;79.67
46534;BME280;32260;52.008;4.752;2023-07-31T05:23:19;100799.56;;;18.07;79.89
46534;BME280;32260;52.008;4.752;2023-07-31T05:25:45;100783.56;;;18.06;80.01
46534;BME280;32260;52.008;4.752;2023-07-31T05:28:12;100788.66;;;18.10;80.24
46534;BME280;32260;52.008;4.752;2023-07-31T05:30:39;100780.94;;;18.04;79.96
46534;BME280;32260;52.008;4.752;2023-07-31T05:33:05;100784.59;;;18.03;80.14
46534;BME280;32260;52.008;4.752;2023-07-31T05:35:31;100767.31;;;18.09;80.41
46534;BME280;32260;52.008;4.752;2023-07-31T05:37:57;100776.78;;;17.99;80.89
46534;BME280;32260;52.008;4.752;2023-07-31T05:40:23;100766.91;;;17.99;80.94
46534;BME280;32260;52.008;4.752;2023-07-31T05:42:49;100763.78;;;18.08;80.87
46534;BME280;32260;52.008;4.752;2023-07-31T05:45:15;100768.41;;;18.05;81.22
46534;BME280;32260;52.008;4.752;2023-07-31T05:47:41;100765.03;;;18.01;81.53
46534;BME280;32260;52.008;4.752;2023-07-31T05:50:08;100765.19;;;18.16;80.92
46534;BME280;32260;52.008;4.752;2023-07-31T05:52:34;100753.66;;;18.14;81.09
46534;BME280;32260;52.008;4.752;2023-07-31T05:55:00;100755.94;;;18.21;80.72
46534;BME280;32260;52.008;4.752;2023-07-31T05:57:27;100743.97;;;18.11;81.22
46534;BME280;32260;52.008;4.752;2023-07-31T05:59:53;100742.94;;;18.14;81.21
46534;BME280;32260;52.008;4.752;2023-07-31T06:02:19;100754.28;;;18.19;81.22
46534;BME280;32260;52.008;4.752;2023-07-31T06:04:45;100742.59;;;18.20;81.53
46534;BME280;32260;52.008;4.752;2023-07-31T06:07:11;100753.34;;;18.20;81.48
46534;BME280;32260;52.008;4.752;2023-07-31T06:09:37;100744.50;;;18.18;81.44
46534;BME280;32260;52.008;4.752;2023-07-31T06:12:03;100750.25;;;18.27;81.39
46534;BME280;32260;52.008;4.752;2023-07-31T06:14:30;100750.41;;;18.24;81.39
46534;BME280;32260;52.008;4.752;2023-07-31T06:16:56;100752.31;;;18.22;81.48
46534;BME280;32260;52.008;4.752;2023-07-31T06:19:22;100750.94;;;18.31;81.43
46534;BME280;32260;52.008;4.752;2023-07-31T06:21:48;100749.06;;;18.33;81.76
46534;BME280;32260;52.008;4.752;2023-07-31T06:24:14;100744.88;;;18.27;82.21
46534;BME280;32260;52.008;4.752;2023-07-31T06:26:44;100744.06;;;18.25;82.12
46534;BME280;32260;52.008;4.752;2023-07-31T06:29:10;100739.97;;;18.36;82.04
46534;BME280;32260;52.008;4.752;2023-07-31T06:31:36;100740.50;;;18.42;81.61
46534;BME280;32260;52.008;4.752;2023-07-31T06:34:02;100733.31;;;18.43;82.28
46534;BME280;32260;52.008;4.752;2023-07-31T06:36:28;100731.66;;;18.40;82.45
46534;BME280;32260;52.008;4.752;2023-07-31T06:38:54;100730.22;;;18.51;81.99
46534;BME280;32260;52.008;4.752;2023-07-31T06:41:20;100727.34;;;18.54;82.03
46534;BME280;32260;52.008;4.752;2023-07-31T06:43:47;100724.56;;;18.55;82.00
46534;BME280;32260;52.008;4.752;2023-07-31T06:46:13;100724.84;;;18.51;81.92
46534;BME280;32260;52.008;4.752;2023-07-31T06:48:39;100719.50;;;18.51;81.77
46534;BME280;32260;52.008;4.752;2023-07-31T06:51:05;100713.78;;;18.57;81.54
46534;BME280;32260;52.008;4.752;2023-07-31T06:53:31;100721.97;;;18.54;81.83
46534;BME280;32260;52.008;4.752;2023-07-31T06:55:57;100714.97;;;18.51;81.90
46534;BME280;32260;52.008;4.752;2023-07-31T06:58:23;100716.63;;;18.54;81.89
46534;BME280;32260;52.008;4.752;2023-07-31T07:00:49;100716.91;;;18.49;82.34
46534;BME280;32260;52.008;4.752;2023-07-31T07:03:18;100722.88;;;18.54;82.35
46534;BME280;32260;52.008;4.752;2023-07-31T07:05:45;100705.88;;;18.54;82.07
46534;BME280;32260;52.008;4.752;2023-07-31T07:08:11;100705.47;;;18.46;82.69
46534;BME280;32260;52.008;4.752;2023-07-31T07:10:37;100716.63;;;18.54;81.88
46534;BME280;32260;52.008;4.752;2023-07-31T07:13:03;100713.00;;;18.55;81.95
46534;BME280;32260;52.008;4.752;2023-07-31T07:15:29;100710.81;;;18.62;82.99
46534;BME280;32260;52.008;4.752;2023-07-31T07:17:55;100723.53;;;18.74;82.33
46534;BME280;32260;52.008;4.752;2023-07-31T07:20:22;100711.72;;;18.78;82.30
46534;BME280;32260;52.008;4.752;2023-07-31T07:22:48;100712.22;;;18.85;82.35
46534;BME280;32260;52.008;4.752;2023-07-31T07:25:14;100714.31;;;18.80;82.41
46534;BME280;32260;52.008;4.752;2023-07-31T07:27:40;100702.88;;;18.76;82.25
46534;BME280;32260;52.008;4.752;2023-07-31T07:30:06;100706.69;;;18.88;81.91
46534;BME280;32260;52.008;4.752;2023-07-31T07:32:33;100703.91;;;18.89;81.84
46534;BME280;32260;52.008;4.752;2023-07-31T07:34:59;100704.44;;;18.96;81.83
46534;BME280;32260;52.008;4.752;2023-07-31T07:37:25;100711.66;;;18.96;81.63
46534;BME280;32260;52.008;4.752;2023-07-31T07:39:51;100697.19;;;18.98;81.62
46534;BME280;32260;52.008;4.752;2023-07-31T07:42:17;100702.34;;;19.01;81.88
46534;BME280;32260;52.008;4.752;2023-07-31T07:44:43;100711.09;;;19.05;81.36
46534;BME280;32260;52.008;4.752;2023-07-31T07:47:09;100717.59;;;19.01;81.78
46534;BME280;32260;52.008;4.752;2023-07-31T07:49:35;100711.56;;;18.97;81.93
46534;BME280;32260;52.008;4.752;2023-07-31T07:52:02;100723.47;;;19.07;81.97
46534;BME280;32260;52.008;4.752;2023-07-31T07:54:28;100716.38;;;19.06;82.10
46534;BME280;32260;52.008;4.752;2023-07-31T07:56:54;100721.16;;;19.01;82.04
46534;BME280;32260;52.008;4.752;2023-07-31T07:59:20;100700.47;;;19.03;81.75
46534;BME280;32260;52.008;4.752;2023-07-31T08:01:46;100700.19;;;19.08;82.12
46534;BME280;32260;52.008;4.752;2023-07-31T08:04:12;100696.81;;;19.04;82.29
46534;BME280;32260;52.008;4.752;2023-07-31T08:06:39;100701.28;;;19.20;82.10
46534;BME280;32260;52.008;4.752;2023-07-31T08:09:08;100696.81;;;19.20;81.68
46534;BME280;32260;52.008;4.752;2023-07-31T08:11:35;100683.78;;;19.13;82.23
46534;BME280;32260;52.008;4.752;2023-07-31T08:14:01;100684.31;;;19.19;81.68
46534;BME280;32260;52.008;4.752;2023-07-31T08:16:27;100687.28;;;19.15;82.19
46534;BME280;32260;52.008;4.752;2023-07-31T08:18:53;100683.06;;;19.25;82.02
46534;BME280;32260;52.008;4.752;2023-07-31T08:21:19;100675.56;;;19.16;81.95
46534;BME280;32260;52.008;4.752;2023-07-31T08:23:46;100686.81;;;19.22;82.11
46534;BME280;32260;52.008;4.752;2023-07-31T08:26:17;100680.81;;;19.33;81.90
46534;BME280;32260;52.008;4.752;2023-07-31T08:28:43;100704.50;;;19.27;81.74
46534;BME280;32260;52.008;4.752;2023-07-31T08:31:09;100699.03;;;19.28;81.82
46534;BME280;32260;52.008;4.752;2023-07-31T08:33:36;100693.66;;;19.28;81.92
46534;BME280;32260;52.008;4.752;2023-07-31T08:36:03;100677.53;;;19.28;81.96
46534;BME280;32260;52.008;4.752;2023-07-31T08:38:29;100670.16;;;19.32;82.22
46534;BME280;32260;52.008;4.752;2023-07-31T08:40:57;100678.81;;;19.37;82.34
46534;BME280;32260;52.008;4.752;2023-07-31T08:43:26;100675.66;;;19.45;82.11
46534;BME280;32260;52.008;4.752;2023-07-31T08:45:53;100683.91;;;19.42;81.97
46534;BME280;32260;52.008;4.752;2023-07-31T08:48:21;100675.03;;;19.55;81.82
46534;BME280;32260;52.008;4.752;2023-07-31T08:50:48;100674.81;;;19.59;82.19
46534;BME280;32260;52.008;4.752;2023-07-31T08:53:14;100675.56;;;19.46;81.99
46534;BME280;32260;52.008;4.752;2023-07-31T08:55:40;100682.66;;;19.47;82.26
46534;BME280;32260;52.008;4.752;2023-07-31T08:58:07;100677.44;;;19.60;82.60
46534;BME280;32260;52.008;4.752;2023-07-31T09:00:33;100680.50;;;19.68;82.42
46534;BME280;32260;52.008;4.752;2023-07-31T09:03:06;100679.97;;;19.78;82.25
46534;BME280;32260;52.008;4.752;2023-07-31T09:05:35;100682.66;;;19.78;81.99
46534;BME280;32260;52.008;4.752;2023-07-31T09:08:02;100673.09;;;19.88;81.57
46534;BME280;32260;52.008;4.752;2023-07-31T09:10:30;100675.91;;;19.70;81.80
46534;BME280;32260;52.008;4.752;2023-07-31T09:12:56;100683.06;;;19.86;81.38
46534;BME280;32260;52.008;4.752;2023-07-31T09:15:24;100676.28;;;19.79;82.18
46534;BME280;32260;52.008;4.752;2023-07-31T09:18:00;100678.72;;;19.83;81.73
46534;BME280;32260;52.008;4.752;2023-07-31T09:20:27;100673.81;;;19.76;81.54
46534;BME280;32260;52.008;4.752;2023-07-31T09:22:53;100678.38;;;19.59;82.26
46534;BME280;32260;52.008;4.752;2023-07-31T09:25:22;100677.81;;;19.54;82.60
46534;BME280;32260;52.008;4.752;2023-07-31T09:27:54;100672.34;;;19.70;82.38
46534;BME280;32260;52.008;4.752;2023-07-31T09:30:21;100673.41;;;19.67;82.40
46534;BME280;32260;52.008;4.752;2023-07-31T09:32:48;100673.41;;;19.67;82.56
46534;BME280;32260;52.008;4.752;2023-07-31T09:37:59;100661.31;;;19.75;82.23
46534;BME280;32260;52.008;4.752;2023-07-31T09:40:27;100668.66;;;19.87;82.29
46534;BME280;32260;52.008;4.752;2023-07-31T09:42:55;100671.25;;;19.88;82.74
46534;BME280;32260;52.008;4.752;2023-07-31T09:45:23;100663.38;;;19.85;82.58
46534;BME280;32260;52.008;4.752;2023-07-31T09:47:49;100665.00;;;20.02;82.45
46534;BME280;32260;52.008;4.752;2023-07-31T09:50:15;100655.22;;;20.01;81.89
46534;BME280;32260;52.008;4.752;2023-07-31T09:52:42;100651.97;;;19.96;81.63
46534;BME280;32260;52.008;4.752;2023-07-31T09:55:09;100662.13;;;19.91;81.81
46534;BME280;32260;52.008;4.752;2023-07-31T09:57:40;100659.53;;;20.04;81.55
46534;BME280;32260;52.008;4.752;2023-07-31T10:00:09;100657.81;;;20.03;81.88
46534;BME280;32260;52.008;4.752;2023-07-31T10:02:37;100654.16;;;20.04;81.50
46534;BME280;32260;52.008;4.752;2023-07-31T10:05:07;100652.53;;;20.01;81.70
46534;BME280;32260;52.008;4.752;2023-07-31T10:07:38;100654.25;;;20.02;81.89
46534;BME280;32260;52.008;4.752;2023-07-31T10:10:08;100663.00;;;20.06;81.58
46534;BME280;32260;52.008;4.752;2023-07-31T10:12:36;100658.38;;;20.08;81.22
46534;BME280;32260;52.008;4.752;2023-07-31T10:15:04;100654.06;;;20.06;81.00
46534;BME280;32260;52.008;4.752;2023-07-31T10:17:32;100675.69;;;20.04;81.41
46534;BME280;32260;52.008;4.752;2023-07-31T10:19:59;100667.03;;;20.13;80.89
46534;BME280;32260;52.008;4.752;2023-07-31T10:22:30;100661.25;;;20.19;80.74
46534;BME280;32260;52.008;4.752;2023-07-31T10:24:58;100666.06;;;20.29;80.25
46534;BME280;32260;52.008;4.752;2023-07-31T10:27:25;100661.16;;;20.35;80.12
46534;BME280;32260;52.008;4.752;2023-07-31T10:29:53;100664.50;;;20.25;80.13
46534;BME280;32260;52.008;4.752;2023-07-31T10:32:21;100671.44;;;20.29;79.76
46534;BME280;32260;52.008;4.752;2023-07-31T10:34:48;100673.47;;;20.11;80.24
46534;BME280;32260;52.008;4.752;2023-07-31T10:37:39;100650.00;;;20.27;79.35
46534;BME280;32260;52.008;4.752;2023-07-31T10:40:16;100671.16;;;20.19;79.79
46534;BME280;32260;52.008;4.752;2023-07-31T10:48:15;100652.50;;;20.30;79.06
46534;BME280;32260;52.008;4.752;2023-07-31T10:50:51;100652.47;;;20.45;79.04
46534;BME280;32260;52.008;4.752;2023-07-31T10:53:28;100653.19;;;20.34;79.09
46534;BME280;32260;52.008;4.752;2023-07-31T10:55:59;100663.06;;;20.33;78.87
46534;BME280;32260;52.008;4.752;2023-07-31T10:58:25;100654.59;;;20.40;78.69
46534;BME280;32260;52.008;4.752;2023-07-31T11:00:56;100650.94;;;20.41;78.82
46534;BME280;32260;52.008;4.752;2023-07-31T11:03:26;100655.47;;;20.40;78.86
46534;BME280;32260;52.008;4.752;2023-07-31T11:06:01;100646.56;;;20.25;79.11
46534;BME280;32260;52.008;4.752;2023-07-31T11:11:07;100644.63;;;20.27;79.35
46534;BME280;32260;52.008;4.752;2023-07-31T11:13:41;100633.41;;;20.20;79.92
46534;BME280;32260;52.008;4.752;2023-07-31T11:16:08;100629.47;;;20.12;80.46
46534;BME280;32260;52.008;4.752;2023-07-31T11:18:35;100619.44;;;20.28;80.09
46534;BME280;32260;52.008;4.752;2023-07-31T11:21:04;100627.16;;;20.20;80.56
46534;BME280;32260;52.008;4.752;2023-07-31T11:23:30;100627.22;;;20.33;80.20
46534;BME280;32260;52.008;4.752;2023-07-31T11:26:00;100632.22;;;20.39;80.38
46534;BME280;32260;52.008;4.752;2023-07-31T11:28:26;100628.66;;;20.39;80.89
46534;BME280;32260;52.008;4.752;2023-07-31T11:30:57;100620.97;;;20.32;80.58
46534;BME280;32260;52.008;4.752;2023-07-31T11:33:23;100617.13;;;20.36;80.42
46534;BME280;32260;52.008;4.752;2023-07-31T11:35:49;100626.84;;;20.39;80.15
46534;BME280;32260;52.008;4.752;2023-07-31T11:38:32;100623.47;;;20.50;80.35
46534;BME280;32260;52.008;4.752;2023-07-31T11:41:00;100621.06;;;20.45;80.59
46534;BME280;32260;52.008;4.752;2023-07-31T11:43:28;100615.69;;;20.45;80.29
46534;BME280;32260;52.008;4.752;2023-07-31T11:45:56;100619.03;;;20.49;80.30
46534;BME280;32260;52.008;4.752;2023-07-31T11:48:25;100616.34;;;20.49;79.82
46534;BME280;32260;52.008;4.752;2023-07-31T11:50:55;100629.41;;;20.41;79.87
46534;BME280;32260;52.008;4.752;2023-07-31T11:53:29;100642.09;;;20.39;80.28
46534;BME280;32260;52.008;4.752;2023-07-31T11:55:59;100643.66;;;20.43;80.04
46534;BME280;32260;52.008;4.752;2023-07-31T11:58:27;100643.84;;;20.40;80.43
46534;BME280;32260;52.008;4.752;2023-07-31T12:00:54;100637.31;;;20.44;80.29
46534;BME280;32260;52.008;4.752;2023-07-31T12:03:21;100640.97;;;20.28;80.65
46534;BME280;32260;52.008;4.752;2023-07-31T12:05:48;100636.13;;;20.48;80.29
46534;BME280;32260;52.008;4.752;2023-07-31T12:08:14;100630.53;;;20.51;80.32
46534;BME280;32260;52.008;4.752;2023-07-31T12:10:42;100625.75;;;20.56;80.08
46534;BME280;32260;52.008;4.752;2023-07-31T12:15:47;100616.94;;;20.67;79.86
46534;BME280;32260;52.008;4.752;2023-07-31T12:18:15;100605.91;;;20.57;79.95
46534;BME280;32260;52.008;4.752;2023-07-31T12:20:43;100605.91;;;20.72;80.03
46534;BME280;32260;52.008;4.752;2023-07-31T12:23:27;100615.41;;;20.77;80.33
46534;BME280;32260;52.008;4.752;2023-07-31T12:28:42;100596.72;;;20.89;79.42
46534;BME280;32260;52.008;4.752;2023-07-31T12:31:11;100600.41;;;21.00;79.06
46534;BME280;32260;52.008;4.752;2023-07-31T12:33:38;100597.91;;;20.97;78.99
46534;BME280;32260;52.008;4.752;2023-07-31T12:36:10;100604.69;;;20.90;78.27
46534;BME280;32260;52.008;4.752;2023-07-31T12:38:37;100598.47;;;21.03;78.14
46534;BME280;32260;52.008;4.752;2023-07-31T12:41:03;100588.63;;;20.89;78.53
46534;BME280;32260;52.008;4.752;2023-07-31T12:43:29;100585.06;;;20.88;78.66
46534;BME280;32260;52.008;4.752;2023-07-31T12:45:56;100577.34;;;20.96;78.40
46534;BME280;32260;52.008;4.752;2023-07-31T12:48:22;100575.72;;;20.94;78.62
46534;BME280;32260;52.008;4.752;2023-07-31T12:50:48;100570.53;;;20.91;78.19
46534;BME280;32260;52.008;4.752;2023-07-31T12:53:15;100581.09;;;20.94;78.54
46534;BME280;32260;52.008;4.752;2023-07-31T12:55:41;100585.19;;;20.99;78.24
46534;BME280;32260;52.008;4.752;2023-07-31T12:58:08;100579.09;;;21.10;78.01
46534;BME280;32260;52.008;4.752;2023-07-31T13:00:37;100573.38;;;21.15;78.02
46534;BME280;32260;52.008;4.752;2023-07-31T13:03:08;100575.84;;;21.18;77.53
46534;BME280;32260;52.008;4.752;2023-07-31T13:05:38;100575.84;;;21.18;77.08
46534;BME280;32260;52.008;4.752;2023-07-31T13:08:04;100571.44;;;21.17;77.27
46534;BME280;32260;52.008;4.752;2023-07-31T13:10:33;100575.53;;;21.10;77.64